createdAt,value
2023-03-30T00:01:26.564Z,97936.00
2023-03-30T00:03:55.250Z,97947.03
2023-03-30T00:06:23.200Z,97963.25
2023-03-30T00:08:58.545Z,97970.41
2023-03-30T00:11:27.444Z,97955.63
2023-03-30T00:13:55.206Z,97935.31
2023-03-30T00:16:22.969Z,97929.84
2023-03-30T00:18:51.319Z,97940.47
2023-03-30T00:21:20.587Z,97934.34
2023-03-30T00:23:48.289Z,97935.00
2023-03-30T00:26:16.144Z,97936.75
2023-03-30T00:28:43.568Z,97932.00
2023-03-30T00:31:11.387Z,97933.28
2023-03-30T00:33:46.577Z,97937.59
2023-03-30T00:36:15.664Z,97931.25
2023-03-30T00:38:43.911Z,97929.28
2023-03-30T00:41:11.369Z,97933.78
2023-03-30T00:43:59.057Z,97923.13
2023-03-30T00:46:26.807Z,97932.13
2023-03-30T00:48:57.822Z,97932.00
2023-03-30T00:51:28.142Z,97918.03
2023-03-30T00:54:02.609Z,97897.66
2023-03-30T00:56:30.960Z,97866.25
2023-03-30T00:58:58.955Z,97866.88
2023-03-30T01:01:31.066Z,97863.63
2023-03-30T01:04:05.484Z,97861.72
2023-03-30T01:06:34.968Z,97863.22
2023-03-30T01:09:02.623Z,97863.41
2023-03-30T01:11:29.960Z,97857.66
2023-03-30T01:14:06.201Z,97857.69
2023-03-30T01:16:40.117Z,97839.84
2023-03-30T01:20:19.463Z,97832.53
2023-03-30T01:23:19.751Z,97845.53
2023-03-30T01:26:39.367Z,97834.97
2023-03-30T01:29:44.831Z,97833.19
2023-03-30T01:33:07.390Z,97833.91
2023-03-30T01:35:54.010Z,97838.56
2023-03-30T01:39:09.582Z,97848.75
2023-03-30T01:41:56.667Z,97863.38
2023-03-30T01:44:53.922Z,97864.69
2023-03-30T01:47:53.285Z,97874.16
2023-03-30T01:50:23.606Z,97899.09
2023-03-30T01:53:15.963Z,97873.25
2023-03-30T01:55:47.292Z,97881.13
2023-03-30T01:58:36.991Z,97886.38
2023-03-30T02:01:10.343Z,97871.19
2023-03-30T02:03:44.605Z,97874.84
2023-03-30T02:06:43.786Z,97867.88
2023-03-30T02:09:16.505Z,97862.38
2023-03-30T02:11:48.188Z,97882.81
2023-03-30T02:14:18.104Z,97896.22
2023-03-30T02:16:51.548Z,97900.22
2023-03-30T02:19:19.566Z,97897.94
2023-03-30T02:21:48.030Z,97885.97
2023-03-30T02:24:25.000Z,97862.34
2023-03-30T02:26:54.341Z,97860.84
2023-03-30T02:29:23.115Z,97878.22
2023-03-30T02:31:53.491Z,97882.84
2023-03-30T02:34:25.851Z,97889.41
2023-03-30T02:37:27.591Z,97869.09
2023-03-30T02:40:12.348Z,97871.47
2023-03-30T02:43:09.187Z,97881.31
2023-03-30T02:45:43.051Z,97876.34
2023-03-30T02:48:31.830Z,97872.66
2023-03-30T02:51:33.929Z,97889.94
2023-03-30T02:54:51.123Z,97896.47
2023-03-30T02:57:40.612Z,97882.28
2023-03-30T03:00:52.310Z,97880.53
2023-03-30T03:03:37.389Z,97867.41
2023-03-30T03:06:05.779Z,97872.81
2023-03-30T03:08:41.258Z,97884.78
2023-03-30T03:11:12.014Z,97884.16
2023-03-30T03:13:39.742Z,97869.50
2023-03-30T03:16:11.025Z,97873.88
2023-03-30T03:18:40.362Z,97883.13
2023-03-30T03:21:09.303Z,97871.75
2023-03-30T03:23:37.457Z,97850.59
2023-03-30T03:26:06.733Z,97827.50
2023-03-30T03:28:35.079Z,97831.81
2023-03-30T03:31:07.870Z,97832.94
2023-03-30T03:33:36.316Z,97850.59
2023-03-30T03:36:11.013Z,97824.13
2023-03-30T03:38:43.490Z,97825.81
2023-03-30T03:41:10.885Z,97825.38
2023-03-30T03:43:39.565Z,97810.28
2023-03-30T03:46:07.253Z,97815.38
2023-03-30T03:48:37.500Z,97803.69
2023-03-30T03:51:05.601Z,97800.06
2023-03-30T03:53:34.950Z,97792.41
2023-03-30T03:56:06.006Z,97805.28
2023-03-30T03:58:34.266Z,97790.91
2023-03-30T04:01:03.917Z,97777.94
2023-03-30T04:03:32.083Z,97793.63
2023-03-30T04:06:01.007Z,97807.19
2023-03-30T04:08:29.043Z,97799.06
2023-03-30T04:11:11.759Z,97816.81
2023-03-30T04:14:05.682Z,97810.78
2023-03-30T04:16:58.365Z,97791.50
2023-03-30T04:19:38.266Z,97782.91
2023-03-30T04:22:26.710Z,97767.25
2023-03-30T04:25:27.516Z,97777.03
2023-03-30T04:28:14.476Z,97772.25
2023-03-30T04:31:05.325Z,97780.13
2023-03-30T04:33:53.291Z,97764.81
2023-03-30T04:36:43.765Z,97751.59
2023-03-30T04:39:23.722Z,97751.09
2023-03-30T04:42:14.045Z,97729.97
2023-03-30T04:44:54.223Z,97720.63
2023-03-30T04:47:40.298Z,97738.47
2023-03-30T04:50:39.933Z,97738.81
2023-03-30T04:53:37.394Z,97722.06
2023-03-30T04:56:33.639Z,97707.25
2023-03-30T04:59:21.195Z,97714.03
2023-03-30T05:02:11.933Z,97707.97
2023-03-30T05:05:09.941Z,97687.13
2023-03-30T05:08:00.400Z,97695.31
2023-03-30T05:10:47.365Z,97691.72
2023-03-30T05:13:17.741Z,97708.81
2023-03-30T05:16:11.041Z,97693.13
2023-03-30T05:18:58.971Z,97682.66
2023-03-30T05:21:44.831Z,97682.25
2023-03-30T05:24:31.532Z,97687.50
2023-03-30T05:27:31.290Z,97682.59
2023-03-30T05:30:19.061Z,97667.06
2023-03-30T05:33:05.414Z,97660.50
2023-03-30T05:35:51.132Z,97660.75
2023-03-30T05:38:42.066Z,97672.16
2023-03-30T05:41:32.623Z,97667.94
2023-03-30T05:44:08.821Z,97676.25
2023-03-30T05:46:56.236Z,97660.94
2023-03-30T05:49:29.453Z,97654.84
2023-03-30T05:52:07.368Z,97637.25
2023-03-30T05:54:57.136Z,97642.03
2023-03-30T05:57:31.374Z,97635.81
2023-03-30T06:00:14.583Z,97635.66
2023-03-30T06:02:53.282Z,97634.66
2023-03-30T06:05:24.379Z,97635.47
2023-03-30T06:07:51.976Z,97646.13
2023-03-30T06:10:19.884Z,97656.66
2023-03-30T06:12:48.303Z,97667.44
2023-03-30T06:15:31.233Z,97687.66
2023-03-30T06:18:13.384Z,97694.81
2023-03-30T06:20:50.483Z,97698.41
2023-03-30T06:23:18.200Z,97727.38
2023-03-30T06:25:53.327Z,97737.09
2023-03-30T06:28:26.119Z,97763.84
2023-03-30T06:30:54.253Z,97768.50
2023-03-30T06:33:25.929Z,97783.81
2023-03-30T06:35:58.330Z,97770.50
2023-03-30T06:38:25.720Z,97766.34
2023-03-30T06:40:55.749Z,97773.41
2023-03-30T06:43:26.296Z,97797.50
2023-03-30T06:46:00.230Z,97794.97
2023-03-30T06:48:27.692Z,97787.09
2023-03-30T06:51:15.203Z,97809.72
2023-03-30T06:53:44.809Z,97828.06
2023-03-30T06:56:12.339Z,97815.78
2023-03-30T06:58:54.041Z,97810.78
2023-03-30T07:01:21.750Z,97830.97
2023-03-30T07:04:12.515Z,97828.88
2023-03-30T07:07:00.371Z,97851.78
2023-03-30T07:09:28.224Z,97848.41
2023-03-30T07:11:56.572Z,97856.34
2023-03-30T07:14:24.258Z,97852.00
2023-03-30T07:16:53.066Z,97854.47
2023-03-30T07:19:20.420Z,97875.31
2023-03-30T07:21:47.840Z,97884.00
2023-03-30T07:24:17.882Z,97879.09
2023-03-30T07:26:45.460Z,97899.31
2023-03-30T07:29:13.017Z,97890.78
2023-03-30T07:31:43.116Z,97893.69
2023-03-30T07:34:12.675Z,97919.59
2023-03-30T07:36:46.116Z,97913.81
2023-03-30T07:39:13.589Z,97936.47
2023-03-30T07:41:43.883Z,97930.47
2023-03-30T07:44:11.297Z,97937.66
2023-03-30T07:46:38.888Z,97939.44
2023-03-30T07:49:06.848Z,97967.47
2023-03-30T07:51:34.557Z,97918.72
2023-03-30T07:54:10.299Z,97907.88
2023-03-30T07:56:52.903Z,97877.50
2023-03-30T07:59:21.897Z,97867.59
2023-03-30T08:01:54.536Z,97887.28
2023-03-30T08:04:44.904Z,97883.78
2023-03-30T08:07:14.498Z,97874.88
2023-03-30T08:09:42.484Z,97904.94
2023-03-30T08:12:09.997Z,97909.75
2023-03-30T08:14:37.453Z,97908.22
2023-03-30T08:17:04.838Z,97906.81
2023-03-30T08:19:32.240Z,97909.91
2023-03-30T08:22:01.736Z,97900.91
2023-03-30T08:24:29.167Z,97937.13
2023-03-30T08:26:56.597Z,97965.78
2023-03-30T08:29:23.987Z,97973.69
2023-03-30T08:31:52.688Z,97966.66
2023-03-30T08:34:20.095Z,97984.91
2023-03-30T08:36:47.479Z,98000.28
2023-03-30T08:39:15.476Z,97994.94
2023-03-30T08:42:00.270Z,97971.81
2023-03-30T08:45:05.161Z,97952.19
2023-03-30T08:47:39.917Z,97947.56
2023-03-30T08:50:08.617Z,97935.22
2023-03-30T08:52:36.899Z,97932.91
2023-03-30T08:55:04.746Z,97921.09
2023-03-30T08:58:03.296Z,97882.00
2023-03-30T09:00:49.670Z,97874.63
2023-03-30T09:03:28.104Z,97885.28
2023-03-30T09:06:12.114Z,97916.97
2023-03-30T09:08:39.905Z,97891.94
2023-03-30T09:11:15.411Z,97889.94
2023-03-30T09:13:45.519Z,97869.72
2023-03-30T09:16:30.575Z,97877.09
2023-03-30T09:19:00.075Z,97874.81
2023-03-30T09:21:31.570Z,97868.31
2023-03-30T09:24:02.301Z,97861.19
2023-03-30T09:26:57.144Z,97879.84
2023-03-30T09:29:32.589Z,97887.78
2023-03-30T09:32:14.730Z,97890.59
2023-03-30T09:34:59.705Z,97901.94
2023-03-30T09:37:27.251Z,97896.84
2023-03-30T09:39:55.113Z,97891.50
2023-03-30T09:42:48.024Z,97874.31
2023-03-30T09:45:32.662Z,97884.94
2023-03-30T09:48:08.578Z,97885.53
2023-03-30T09:50:54.502Z,97904.19
2023-03-30T09:53:29.204Z,97899.41
2023-03-30T09:56:04.332Z,97914.56
2023-03-30T09:58:34.082Z,97934.84
2023-03-30T10:01:18.402Z,97921.69
2023-03-30T10:04:32.608Z,97915.28
2023-03-30T10:07:06.965Z,97921.41
2023-03-30T10:09:44.857Z,97922.72
2023-03-30T10:12:14.176Z,97930.00
2023-03-30T10:14:41.611Z,97924.69
2023-03-30T10:17:16.867Z,97920.00
2023-03-30T10:19:49.406Z,97916.59
2023-03-30T10:22:24.318Z,97912.66
2023-03-30T10:24:56.946Z,97910.25
2023-03-30T10:27:37.430Z,97917.00
2023-03-30T10:30:24.635Z,97907.63
2023-03-30T10:32:53.889Z,97894.16
2023-03-30T10:35:39.286Z,97890.56
2023-03-30T10:38:08.237Z,97900.34
2023-03-30T10:40:39.542Z,97888.31
2023-03-30T10:43:14.744Z,97884.00
2023-03-30T10:45:47.933Z,97869.38
2023-03-30T10:48:36.823Z,97886.31
2023-03-30T10:51:40.816Z,97880.03
2023-03-30T10:54:26.601Z,97872.25
2023-03-30T10:57:08.374Z,97850.53
2023-03-30T10:59:45.828Z,97856.50
2023-03-30T11:02:44.509Z,97859.28
2023-03-30T11:05:22.873Z,97861.59
2023-03-30T11:08:12.233Z,97868.59
2023-03-30T11:10:44.420Z,97855.31
2023-03-30T11:13:24.521Z,97862.84
2023-03-30T11:16:04.065Z,97865.09
2023-03-30T11:18:43.680Z,97869.50
2023-03-30T11:21:41.570Z,97873.09
2023-03-30T11:24:23.639Z,97869.41
2023-03-30T11:26:56.359Z,97871.66
2023-03-30T11:30:16.017Z,97882.16
2023-03-30T11:33:07.441Z,97871.31
2023-03-30T11:36:06.508Z,97889.00
2023-03-30T11:38:47.990Z,97879.84
2023-03-30T11:41:22.722Z,97881.66
2023-03-30T11:43:55.808Z,97886.38
2023-03-30T11:46:43.799Z,97887.03
2023-03-30T11:49:57.450Z,97878.91
2023-03-30T11:52:52.135Z,97895.00
2023-03-30T11:55:41.492Z,97887.44
2023-03-30T11:58:36.584Z,97886.19
2023-03-30T12:01:15.335Z,97890.19
2023-03-30T12:03:52.128Z,97886.66
2023-03-30T12:06:58.004Z,97891.41
2023-03-30T12:09:33.453Z,97883.88
2023-03-30T12:12:15.884Z,97880.63
2023-03-30T12:15:18.815Z,97892.25
2023-03-30T12:17:51.895Z,97902.59
2023-03-30T12:20:53.430Z,97900.00
2023-03-30T12:23:42.111Z,97876.00
2023-03-30T12:26:30.221Z,97877.53
2023-03-30T12:29:56.464Z,97878.84
2023-03-30T12:32:05.858Z,97871.47
2023-03-30T12:34:38.481Z,97864.66
2023-03-30T12:37:13.257Z,97859.59
2023-03-30T12:39:53.727Z,97848.69
2023-03-30T12:42:35.136Z,97863.47
2023-03-30T12:45:32.243Z,97854.25
2023-03-30T12:48:20.660Z,97834.72
2023-03-30T12:51:12.567Z,97847.91
2023-03-30T12:54:01.350Z,97831.97
2023-03-30T12:56:56.209Z,97833.38
2023-03-30T13:00:09.598Z,97838.56
2023-03-30T13:02:55.124Z,97822.72
2023-03-30T13:05:40.307Z,97829.22
2023-03-30T13:08:16.533Z,97821.63
2023-03-30T13:10:44.041Z,97813.28
2023-03-30T13:13:44.393Z,97799.53
2023-03-30T13:16:14.121Z,97791.56
2023-03-30T13:18:54.789Z,97791.44
2023-03-30T13:21:23.380Z,97800.16
2023-03-30T13:24:28.379Z,97779.88
2023-03-30T13:27:22.902Z,97790.53
2023-03-30T13:30:02.989Z,97774.84
2023-03-30T13:32:47.024Z,97779.53
2023-03-30T13:35:31.239Z,97774.16
2023-03-30T13:38:51.130Z,97775.25
2023-03-30T13:41:50.760Z,97756.94
2023-03-30T13:44:32.614Z,97736.66
2023-03-30T13:47:12.057Z,97745.78
2023-03-30T13:50:00.616Z,97764.53
2023-03-30T13:52:38.239Z,97742.28
2023-03-30T13:55:22.839Z,97729.44
2023-03-30T13:57:53.893Z,97740.69
2023-03-30T14:00:45.260Z,97734.50
2023-03-30T14:03:44.381Z,97741.63
2023-03-30T14:06:14.488Z,97747.47
2023-03-30T14:08:46.357Z,97743.59
2023-03-30T14:11:14.635Z,97747.03
2023-03-30T14:13:42.689Z,97744.13
2023-03-30T14:16:23.365Z,97729.72
2023-03-30T14:18:51.431Z,97738.97
2023-03-30T14:21:23.942Z,97741.31
2023-03-30T14:23:55.222Z,97732.50
2023-03-30T14:26:28.484Z,97749.88
2023-03-30T14:29:03.518Z,97759.34
2023-03-30T14:31:40.377Z,97778.19
2023-03-30T14:34:25.338Z,97772.09
2023-03-30T14:36:59.695Z,97762.72
2023-03-30T14:39:27.427Z,97770.94
2023-03-30T14:41:56.335Z,97774.38
2023-03-30T14:44:24.364Z,97774.97
2023-03-30T14:46:56.626Z,97762.72
2023-03-30T14:49:31.417Z,97756.69
2023-03-30T14:52:14.048Z,97751.06
2023-03-30T14:54:51.373Z,97767.13
2023-03-30T14:57:26.577Z,97780.44
2023-03-30T14:59:59.664Z,97800.97
2023-03-30T15:02:32.405Z,97807.94
2023-03-30T15:05:00.221Z,97801.94
2023-03-30T15:07:31.904Z,97824.59
2023-03-30T15:10:00.661Z,97838.16
2023-03-30T15:12:35.562Z,97851.31
2023-03-30T15:15:06.817Z,97821.31
2023-03-30T15:17:35.379Z,97835.88
2023-03-30T15:20:06.353Z,97826.84
2023-03-30T15:22:49.134Z,97831.00
2023-03-30T15:25:23.338Z,97824.50
2023-03-30T15:28:04.667Z,97824.34
2023-03-30T15:30:39.260Z,97827.59
2023-03-30T15:33:08.008Z,97807.56
2023-03-30T15:35:37.224Z,97811.00
2023-03-30T15:38:15.636Z,97818.28
2023-03-30T15:40:46.988Z,97807.44
2023-03-30T15:43:30.355Z,97815.16
2023-03-30T15:46:13.527Z,97824.56
2023-03-30T15:48:50.244Z,97815.84
2023-03-30T15:51:42.901Z,97817.31
2023-03-30T15:54:13.644Z,97814.75
2023-03-30T15:56:48.206Z,97819.22
2023-03-30T15:59:18.913Z,97818.66
2023-03-30T16:01:54.577Z,97824.28
2023-03-30T16:04:24.377Z,97820.38
2023-03-30T16:06:52.727Z,97820.09
2023-03-30T16:09:20.202Z,97823.16
2023-03-30T16:11:47.835Z,97817.94
2023-03-30T16:14:19.888Z,97805.31
2023-03-30T16:16:47.567Z,97808.81
2023-03-30T16:19:23.694Z,97811.31
2023-03-30T16:21:51.524Z,97813.66
2023-03-30T16:24:18.521Z,97807.75
2023-03-30T16:26:46.870Z,97806.25
2023-03-30T16:29:23.599Z,97803.00
2023-03-30T16:31:51.931Z,97810.56
2023-03-30T16:34:19.452Z,97805.78
2023-03-30T16:36:47.946Z,97804.19
2023-03-30T16:39:29.069Z,97805.31
2023-03-30T16:41:56.493Z,97801.38
2023-03-30T16:44:25.002Z,97798.63
2023-03-30T16:46:52.547Z,97805.34
2023-03-30T16:49:25.820Z,97803.41
2023-03-30T16:51:56.910Z,97796.28
2023-03-30T16:54:32.218Z,97812.84
2023-03-30T16:57:01.199Z,97809.69
2023-03-30T16:59:30.639Z,97806.75
2023-03-30T17:01:58.859Z,97811.19
2023-03-30T17:04:26.495Z,97819.28
2023-03-30T17:06:54.562Z,97818.56
2023-03-30T17:09:22.182Z,97812.59
2023-03-30T17:11:49.956Z,97807.97
2023-03-30T17:14:17.758Z,97811.38
2023-03-30T17:16:44.842Z,97811.50
2023-03-30T17:19:13.819Z,97810.19
2023-03-30T17:21:43.345Z,97814.16
2023-03-30T17:24:11.210Z,97830.97
2023-03-30T17:26:39.059Z,97827.66
2023-03-30T17:29:06.125Z,97830.97
2023-03-30T17:31:33.164Z,97834.84
2023-03-30T17:34:00.400Z,97828.34
2023-03-30T17:36:28.619Z,97831.38
2023-03-30T17:38:56.412Z,97820.09
2023-03-30T17:41:23.746Z,97836.78
2023-03-30T17:43:51.528Z,97827.75
2023-03-30T17:46:19.862Z,97824.16
2023-03-30T17:48:47.353Z,97829.00
2023-03-30T17:51:14.367Z,97825.69
2023-03-30T17:53:41.696Z,97834.06
2023-03-30T17:56:12.901Z,97836.88
2023-03-30T17:58:39.926Z,97846.28
2023-03-30T18:01:11.042Z,97838.25
2023-03-30T18:03:39.637Z,97836.19
2023-03-30T18:06:07.628Z,97844.69
2023-03-30T18:08:35.902Z,97845.91
2023-03-30T18:11:03.956Z,97853.66
2023-03-30T18:13:31.260Z,97848.63
2023-03-30T18:16:01.488Z,97849.69
2023-03-30T18:18:30.718Z,97853.97
2023-03-30T18:21:03.155Z,97842.06
2023-03-30T18:23:31.731Z,97847.44
2023-03-30T18:25:59.181Z,97855.81
2023-03-30T18:28:28.394Z,97861.69
2023-03-30T18:30:57.458Z,97870.41
2023-03-30T18:33:25.374Z,97869.81
2023-03-30T18:35:56.935Z,97868.03
2023-03-30T18:38:25.483Z,97871.66
2023-03-30T18:40:57.417Z,97866.31
2023-03-30T18:43:26.725Z,97856.59
2023-03-30T18:45:57.817Z,97853.44
2023-03-30T18:48:27.210Z,97861.91
2023-03-30T18:50:55.393Z,97857.88
2023-03-30T18:53:28.251Z,97855.25
2023-03-30T18:56:00.713Z,97858.09
2023-03-30T18:58:31.225Z,97868.03
2023-03-30T19:00:58.571Z,97869.25
2023-03-30T19:03:28.254Z,97878.63
2023-03-30T19:05:56.010Z,97883.00
2023-03-30T19:08:26.049Z,97885.22
2023-03-30T19:10:58.008Z,97877.41
2023-03-30T19:13:26.597Z,97885.50
2023-03-30T19:15:54.573Z,97890.97
2023-03-30T19:18:22.321Z,97904.06
2023-03-30T19:20:51.574Z,97884.81
2023-03-30T19:23:21.930Z,97884.16
2023-03-30T19:25:49.326Z,97873.88
2023-03-30T19:28:16.831Z,97883.53
2023-03-30T19:30:44.636Z,97887.28
2023-03-30T19:33:20.751Z,97875.81
2023-03-30T19:35:47.937Z,97877.34
2023-03-30T19:38:15.834Z,97882.78
2023-03-30T19:40:43.635Z,97873.53
2023-03-30T19:43:10.760Z,97885.03
2023-03-30T19:45:38.761Z,97883.00
2023-03-30T19:48:06.152Z,97891.38
2023-03-30T19:50:33.600Z,97881.97
2023-03-30T19:53:01.083Z,97885.19
2023-03-30T19:55:28.916Z,97885.97
2023-03-30T19:57:56.321Z,97884.34
2023-03-30T20:00:23.987Z,97883.19
2023-03-30T20:02:54.147Z,97870.19
2023-03-30T20:05:24.000Z,97873.91
2023-03-30T20:07:51.389Z,97864.31
2023-03-30T20:10:24.706Z,97874.91
2023-03-30T20:12:52.874Z,97870.84
2023-03-30T20:15:22.973Z,97860.34
2023-03-30T20:17:56.390Z,97864.84
2023-03-30T20:20:25.413Z,97868.03
2023-03-30T20:22:56.421Z,97863.88
2023-03-30T20:25:24.640Z,97861.34
2023-03-30T20:27:52.807Z,97858.13
2023-03-30T20:30:20.585Z,97853.50
2023-03-30T20:33:03.943Z,97861.94
2023-03-30T20:35:38.579Z,97853.03
2023-03-30T20:38:08.206Z,97852.59
2023-03-30T20:40:35.903Z,97852.22
2023-03-30T20:43:03.565Z,97857.88
2023-03-30T20:45:31.686Z,97851.44
2023-03-30T20:48:00.617Z,97851.28
2023-03-30T20:50:28.018Z,97853.28
2023-03-30T20:52:55.878Z,97842.28
2023-03-30T20:55:23.210Z,97842.81
2023-03-30T20:57:50.787Z,97839.44
2023-03-30T21:00:18.600Z,97851.28
2023-03-30T21:02:46.647Z,97846.09
2023-03-30T21:05:13.555Z,97849.09
2023-03-30T21:07:42.251Z,97840.41
2023-03-30T21:10:09.735Z,97855.38
2023-03-30T21:12:37.116Z,97846.38
2023-03-30T21:15:04.741Z,97847.72
2023-03-30T21:17:31.686Z,97847.25
2023-03-30T21:19:59.134Z,97846.31
2023-03-30T21:22:26.576Z,97831.13
2023-03-30T21:24:53.874Z,97833.66
2023-03-30T21:27:21.197Z,97831.31
2023-03-30T21:29:48.521Z,97838.63
2023-03-30T21:32:15.919Z,97833.19
2023-03-30T21:34:43.245Z,97824.34
2023-03-30T21:37:10.612Z,97824.03
2023-03-30T21:39:38.028Z,97813.44
2023-03-30T21:42:05.432Z,97809.66
2023-03-30T21:44:36.296Z,97802.78
2023-03-30T21:47:03.176Z,97811.75
2023-03-30T21:49:30.821Z,97799.53
2023-03-30T21:51:58.113Z,97793.50
2023-03-30T21:54:25.073Z,97799.41
2023-03-30T21:56:52.381Z,97791.69
2023-03-30T21:59:19.267Z,97786.56
2023-03-30T22:02:11.695Z,97787.94
2023-03-30T22:04:39.210Z,97782.47
2023-03-30T22:07:06.457Z,97789.78
2023-03-30T22:09:33.855Z,97775.06
2023-03-30T22:12:01.308Z,97778.66
2023-03-30T22:14:28.744Z,97774.47
2023-03-30T22:16:57.853Z,97761.19
2023-03-30T22:19:25.199Z,97762.63
2023-03-30T22:21:52.905Z,97764.00
2023-03-30T22:24:20.215Z,97767.63
2023-03-30T22:26:49.156Z,97753.56
2023-03-30T22:29:17.254Z,97756.34
2023-03-30T22:31:44.650Z,97747.19
2023-03-30T22:34:12.091Z,97754.84
2023-03-30T22:36:40.663Z,97749.09
2023-03-30T22:39:09.057Z,97738.84
2023-03-30T22:41:36.346Z,97729.44
2023-03-30T22:44:03.275Z,97722.78
2023-03-30T22:46:30.728Z,97715.53
2023-03-30T22:48:57.716Z,97712.50
2023-03-30T22:51:28.466Z,97708.03
2023-03-30T22:54:00.233Z,97705.56
2023-03-30T22:56:28.401Z,97695.69
2023-03-30T22:58:56.341Z,97698.88
2023-03-30T23:01:23.566Z,97694.06
2023-03-30T23:03:52.942Z,97690.75
2023-03-30T23:06:20.478Z,97699.94
2023-03-30T23:08:48.573Z,97696.25
2023-03-30T23:11:16.286Z,97685.38
2023-03-30T23:13:43.327Z,97694.84
2023-03-30T23:16:10.994Z,97692.66
2023-03-30T23:18:38.560Z,97683.06
2023-03-30T23:21:07.622Z,97686.41
2023-03-30T23:23:36.363Z,97686.09
2023-03-30T23:26:10.228Z,97683.00
2023-03-30T23:28:39.930Z,97685.19
2023-03-30T23:31:15.637Z,97677.78
2023-03-30T23:33:43.556Z,97679.34
2023-03-30T23:36:16.582Z,97675.88
2023-03-30T23:38:43.651Z,97671.28
2023-03-30T23:41:13.719Z,97655.50
2023-03-30T23:43:40.938Z,97663.75
2023-03-30T23:46:09.923Z,97647.03
2023-03-30T23:48:37.477Z,97642.41
2023-03-30T23:51:05.241Z,97637.91
2023-03-30T23:53:32.639Z,97632.03
2023-03-30T23:56:00.004Z,97633.94
2023-03-30T23:58:27.491Z,97631.13
